Terminal Aerodrome Forecast
Issued by NWS Twin Cities, MN

Home | Current Version | Previous Version | Text Only | Print | Product List | Glossary On
Versions: 1 2 3 4 5 6 7 8 9 10 11 12 13 14 15 16 17 18 19 20 21 22 23 24 25 26
306
FTUS43 KMPX 302107 AAA
TAFMSP
TAF AMD
KMSP 302107Z 3021/0124 08017G26KT P6SM SCT050 OVC120
     FM302300 05016G22KT P6SM VCSH BKN045 OVC100
     FM010400 04011KT P6SM BKN040 BKN120
     FM011400 03013G19KT P6SM FEW040 SCT250=

USA.gov is the U.S. government's official web portal to all federal, state and local government web resources and services.